createdAt,value
2022-08-03T00:00:52.096Z,35.00
2022-08-03T00:01:52.099Z,35.49
2022-08-03T00:02:52.135Z,35.19
2022-08-03T00:03:52.099Z,35.19
2022-08-03T00:04:52.099Z,35.58
2022-08-03T00:06:03.709Z,35.00
2022-08-03T00:06:52.101Z,35.78
2022-08-03T00:07:52.103Z,35.58
2022-08-03T00:08:52.103Z,35.68
2022-08-03T00:09:52.104Z,35.68
2022-08-03T00:10:52.106Z,35.58
2022-08-03T00:11:52.107Z,35.49
2022-08-03T00:12:52.106Z,35.58
2022-08-03T00:13:52.109Z,35.49
2022-08-03T00:14:52.110Z,35.78
2022-08-03T00:15:52.111Z,35.39
2022-08-03T00:16:52.111Z,35.29
2022-08-03T00:17:54.032Z,35.68
2022-08-03T00:18:52.114Z,35.58
2022-08-03T00:19:52.116Z,35.49
2022-08-03T00:20:52.115Z,35.58
2022-08-03T00:21:52.117Z,35.88
2022-08-03T00:22:52.116Z,35.58
2022-08-03T00:23:52.960Z,35.68
2022-08-03T00:24:52.118Z,35.58
2022-08-03T00:25:52.119Z,35.49
2022-08-03T00:26:52.121Z,36.07
2022-08-03T00:27:52.123Z,35.88
2022-08-03T00:28:52.121Z,35.58
2022-08-03T00:29:59.790Z,35.97
2022-08-03T00:30:52.124Z,35.49
2022-08-03T00:31:59.158Z,35.68
2022-08-03T00:32:52.126Z,35.97
2022-08-03T00:33:57.976Z,35.97
2022-08-03T00:34:57.797Z,36.07
2022-08-03T00:35:52.130Z,35.78
2022-08-03T00:36:52.129Z,35.58
2022-08-03T00:37:52.131Z,35.97
2022-08-03T00:38:52.134Z,36.26
2022-08-03T00:39:52.133Z,35.68
2022-08-03T00:40:52.132Z,35.88
2022-08-03T00:41:52.135Z,35.88
2022-08-03T00:42:52.135Z,35.88
2022-08-03T00:43:52.137Z,35.97
2022-08-03T00:44:52.136Z,35.88
2022-08-03T00:45:52.144Z,35.97
2022-08-03T00:46:52.142Z,35.96
2022-08-03T00:47:52.144Z,36.07
2022-08-03T00:48:52.200Z,36.07
2022-08-03T00:49:52.143Z,35.78
2022-08-03T00:50:52.163Z,35.78
2022-08-03T00:51:52.144Z,35.78
2022-08-03T00:52:52.145Z,35.86
2022-08-03T00:53:52.148Z,35.88
2022-08-03T00:54:52.147Z,35.97
2022-08-03T00:55:52.148Z,35.88
2022-08-03T00:56:59.613Z,35.97
2022-08-03T00:57:52.149Z,36.07
2022-08-03T00:58:52.149Z,35.88
2022-08-03T00:59:52.153Z,35.76
2022-08-03T01:00:52.228Z,35.97
2022-08-03T01:01:52.156Z,35.97
2022-08-03T01:02:52.153Z,36.07
2022-08-03T01:03:52.156Z,36.26
2022-08-03T01:04:52.154Z,35.58
2022-08-03T01:05:52.160Z,35.88
2022-08-03T01:06:52.157Z,35.88
2022-08-03T01:07:52.160Z,35.68
2022-08-03T01:08:52.158Z,36.07
2022-08-03T01:09:52.163Z,35.97
2022-08-03T01:10:52.161Z,36.07
2022-08-03T01:12:00.658Z,35.88
2022-08-03T01:12:52.162Z,35.97
2022-08-03T01:14:04.053Z,36.07
2022-08-03T01:14:52.164Z,36.07
2022-08-03T01:15:52.167Z,36.16
2022-08-03T01:16:52.165Z,36.05
2022-08-03T01:17:52.167Z,36.16
2022-08-03T01:18:52.169Z,36.07
2022-08-03T01:19:52.170Z,36.26
2022-08-03T01:20:52.171Z,36.26
2022-08-03T01:21:52.173Z,36.16
2022-08-03T01:22:52.176Z,36.46
2022-08-03T01:23:52.175Z,36.75
2022-08-03T01:24:52.174Z,36.16
2022-08-03T01:25:54.517Z,36.26
2022-08-03T01:26:52.178Z,36.26
2022-08-03T01:27:52.178Z,36.75
2022-08-03T01:28:52.176Z,36.46
2022-08-03T01:29:52.193Z,35.97
2022-08-03T01:30:52.180Z,36.46
2022-08-03T01:32:54.551Z,36.36
2022-08-03T01:33:00.521Z,36.46
2022-08-03T01:33:52.182Z,36.85
2022-08-03T01:34:52.182Z,36.75
2022-08-03T01:35:52.186Z,36.75
2022-08-03T01:36:52.183Z,36.46
2022-08-03T01:37:52.186Z,36.75
2022-08-03T01:38:52.187Z,36.75
2022-08-03T01:39:52.189Z,36.75
2022-08-03T01:40:52.188Z,36.75
2022-08-03T01:41:52.191Z,36.75
2022-08-03T01:42:52.189Z,36.36
2022-08-03T01:43:55.255Z,36.46
2022-08-03T01:44:52.192Z,36.46
2022-08-03T01:45:52.193Z,36.46
2022-08-03T01:46:52.194Z,36.55
2022-08-03T01:47:52.196Z,36.46
2022-08-03T01:48:52.348Z,36.44
2022-08-03T01:49:52.198Z,36.07
2022-08-03T01:50:52.199Z,36.55
2022-08-03T01:52:03.821Z,36.34
2022-08-03T01:52:52.198Z,36.34
2022-08-03T01:53:52.204Z,36.55
2022-08-03T01:54:52.200Z,36.46
2022-08-03T01:55:52.204Z,36.55
2022-08-03T01:56:52.203Z,36.46
2022-08-03T01:58:05.468Z,36.36
2022-08-03T01:58:52.205Z,36.65
2022-08-03T01:59:52.209Z,36.26
2022-08-03T02:00:52.272Z,36.55
2022-08-03T02:02:28.535Z,36.36
2022-08-03T02:02:52.300Z,36.54
2022-08-03T02:04:00.495Z,36.55
2022-08-03T02:04:52.214Z,36.36
2022-08-03T02:06:11.494Z,36.55
2022-08-03T02:07:01.178Z,36.55
2022-08-03T02:07:52.215Z,36.44
2022-08-03T02:08:52.212Z,36.65
2022-08-03T02:09:52.216Z,36.65
2022-08-03T02:10:52.216Z,36.46
2022-08-03T02:11:52.217Z,36.55
2022-08-03T02:12:52.216Z,36.65
2022-08-03T02:13:52.219Z,36.55
2022-08-03T02:14:52.219Z,36.16
2022-08-03T02:15:52.223Z,36.55
2022-08-03T02:16:52.221Z,36.36
2022-08-03T02:17:52.222Z,36.65
2022-08-03T02:18:52.223Z,36.26
2022-08-03T02:19:52.225Z,36.16
2022-08-03T02:20:52.224Z,36.15
2022-08-03T02:21:56.874Z,36.55
2022-08-03T02:22:52.226Z,36.16
2022-08-03T02:23:52.229Z,36.65
2022-08-03T02:24:52.227Z,36.94
2022-08-03T02:25:52.231Z,36.55
2022-08-03T02:26:52.231Z,36.54
2022-08-03T02:27:52.231Z,36.94
2022-08-03T02:28:52.232Z,36.46
2022-08-03T02:29:52.233Z,36.44
2022-08-03T02:30:53.964Z,36.46
2022-08-03T02:31:52.234Z,36.94
2022-08-03T02:32:52.235Z,36.85
2022-08-03T02:33:52.239Z,36.44
2022-08-03T02:34:52.244Z,36.63
2022-08-03T02:35:52.245Z,36.54
2022-08-03T02:36:52.239Z,36.54
2022-08-03T02:37:52.239Z,36.44
2022-08-03T02:38:52.244Z,36.94
2022-08-03T02:39:52.240Z,36.85
2022-08-03T02:40:52.242Z,36.54
2022-08-03T02:41:52.242Z,36.55
2022-08-03T02:42:52.245Z,36.94
2022-08-03T02:44:05.749Z,36.85
2022-08-03T02:44:52.246Z,36.54
2022-08-03T02:45:52.246Z,36.94
2022-08-03T02:46:52.248Z,36.73
2022-08-03T02:47:54.100Z,36.85
2022-08-03T02:48:52.349Z,36.94
2022-08-03T02:49:52.763Z,36.85
2022-08-03T02:50:52.254Z,36.26
2022-08-03T02:51:52.251Z,36.83
2022-08-03T02:52:52.255Z,36.36
2022-08-03T02:53:52.253Z,36.83
2022-08-03T02:54:52.256Z,36.85
2022-08-03T02:55:52.257Z,36.85
2022-08-03T02:56:52.256Z,36.94
2022-08-03T02:57:52.257Z,36.85
2022-08-03T02:58:52.259Z,36.36
2022-08-03T02:59:52.258Z,36.54
2022-08-03T03:00:52.356Z,36.85
2022-08-03T03:01:52.259Z,36.85
2022-08-03T03:02:52.263Z,37.02
2022-08-03T03:03:52.261Z,36.83
2022-08-03T03:05:50.866Z,37.04
2022-08-03T03:05:57.438Z,36.85
2022-08-03T03:06:52.266Z,36.26
2022-08-03T03:07:53.279Z,37.02
2022-08-03T03:08:55.523Z,36.83
2022-08-03T03:09:52.267Z,36.85
2022-08-03T03:10:53.271Z,36.83
2022-08-03T03:11:52.269Z,36.83
2022-08-03T03:12:52.282Z,36.83
2022-08-03T03:13:52.270Z,36.34
2022-08-03T03:14:52.272Z,36.75
2022-08-03T03:15:52.271Z,36.83
2022-08-03T03:16:52.273Z,36.93
2022-08-03T03:17:52.273Z,36.83
2022-08-03T03:18:52.275Z,36.94
2022-08-03T03:19:52.275Z,36.83
2022-08-03T03:20:52.276Z,36.73
2022-08-03T03:21:52.277Z,36.85
2022-08-03T03:22:52.279Z,36.36
2022-08-03T03:23:52.279Z,36.85
2022-08-03T03:24:52.281Z,36.75
2022-08-03T03:25:52.286Z,36.83
2022-08-03T03:26:52.282Z,37.04
2022-08-03T03:27:52.282Z,36.85
2022-08-03T03:28:52.288Z,36.85
2022-08-03T03:29:52.284Z,36.85
2022-08-03T03:30:52.786Z,36.73
2022-08-03T03:31:52.287Z,36.85
2022-08-03T03:32:52.731Z,36.85
2022-08-03T03:33:52.290Z,36.85
2022-08-03T03:34:52.288Z,36.83
2022-08-03T03:35:52.290Z,36.85
2022-08-03T03:36:52.290Z,36.85
2022-08-03T03:37:52.291Z,36.85
2022-08-03T03:38:53.748Z,36.83
2022-08-03T03:39:52.292Z,36.85
2022-08-03T03:40:52.295Z,36.83
2022-08-03T03:41:52.294Z,37.04
2022-08-03T03:42:52.295Z,36.65
2022-08-03T03:43:52.295Z,36.73
2022-08-03T03:44:52.298Z,36.85
2022-08-03T03:45:52.297Z,36.85
2022-08-03T03:46:52.300Z,36.94
2022-08-03T03:47:52.300Z,36.93
2022-08-03T03:48:52.338Z,36.54
2022-08-03T03:49:52.372Z,36.93
2022-08-03T03:50:52.305Z,37.04
2022-08-03T03:51:52.302Z,36.85
2022-08-03T03:52:52.304Z,36.85
2022-08-03T03:53:52.303Z,36.73
2022-08-03T03:54:53.792Z,36.83
2022-08-03T03:55:59.306Z,36.83
2022-08-03T03:56:52.308Z,36.94
2022-08-03T03:57:52.307Z,36.85
2022-08-03T03:58:52.309Z,36.73
2022-08-03T03:59:52.309Z,36.55
2022-08-03T04:00:52.337Z,37.02
2022-08-03T04:01:58.532Z,36.83
2022-08-03T04:02:52.312Z,36.85
2022-08-03T04:03:52.315Z,36.83
2022-08-03T04:04:52.313Z,36.85
2022-08-03T04:05:52.314Z,36.24
2022-08-03T04:06:52.316Z,36.93
2022-08-03T04:07:52.317Z,36.75
2022-08-03T04:08:52.319Z,36.85
2022-08-03T04:09:52.318Z,36.73
2022-08-03T04:10:52.319Z,37.02
2022-08-03T04:11:52.321Z,36.36
2022-08-03T04:12:52.320Z,36.94
2022-08-03T04:13:52.323Z,36.83
2022-08-03T04:14:52.323Z,36.83
2022-08-03T04:15:52.322Z,36.15
2022-08-03T04:16:52.322Z,36.26
2022-08-03T04:17:52.324Z,36.83
2022-08-03T04:18:52.327Z,36.83
2022-08-03T04:19:52.325Z,36.85
2022-08-03T04:20:52.328Z,36.73
2022-08-03T04:21:52.326Z,36.93
2022-08-03T04:22:52.337Z,36.24
2022-08-03T04:23:52.328Z,36.54
2022-08-03T04:24:52.330Z,36.54
2022-08-03T04:25:52.330Z,36.73
2022-08-03T04:26:52.970Z,36.63
2022-08-03T04:28:29.712Z,36.44
2022-08-03T04:28:52.333Z,36.65
2022-08-03T04:29:52.333Z,36.54
2022-08-03T04:30:52.336Z,36.63
2022-08-03T04:31:52.335Z,36.54
2022-08-03T04:32:52.338Z,36.63
2022-08-03T04:33:52.337Z,36.63
2022-08-03T04:34:52.338Z,36.73
2022-08-03T04:35:59.671Z,36.44
2022-08-03T04:36:52.339Z,36.85
2022-08-03T04:37:52.343Z,36.63
2022-08-03T04:38:52.342Z,36.63
2022-08-03T04:39:52.342Z,36.83
2022-08-03T04:40:52.343Z,36.75
2022-08-03T04:42:02.289Z,36.73
2022-08-03T04:42:52.345Z,36.85
2022-08-03T04:43:52.346Z,36.93
2022-08-03T04:44:52.347Z,36.94
2022-08-03T04:45:52.346Z,37.04
2022-08-03T04:46:52.798Z,36.73
2022-08-03T04:47:52.349Z,36.93
2022-08-03T04:48:52.389Z,36.83
2022-08-03T04:49:52.349Z,36.83
2022-08-03T04:50:52.353Z,36.83
2022-08-03T04:51:52.351Z,36.93
2022-08-03T04:52:52.352Z,36.83
2022-08-03T04:53:52.353Z,36.83
2022-08-03T04:54:52.355Z,36.73
2022-08-03T04:55:52.357Z,36.83
2022-08-03T04:56:52.356Z,36.83
2022-08-03T04:57:52.356Z,36.93
2022-08-03T04:58:52.358Z,36.73
2022-08-03T04:59:52.358Z,36.73
2022-08-03T05:00:52.360Z,36.73
2022-08-03T05:01:52.399Z,36.73
2022-08-03T05:02:52.363Z,36.63
2022-08-03T05:03:52.361Z,36.83
2022-08-03T05:04:52.366Z,36.54
2022-08-03T05:05:52.363Z,37.02
2022-08-03T05:06:55.016Z,36.85
2022-08-03T05:07:52.365Z,37.02
2022-08-03T05:08:52.366Z,36.85
2022-08-03T05:09:57.687Z,36.75
2022-08-03T05:10:52.367Z,36.93
2022-08-03T05:11:52.367Z,36.73
2022-08-03T05:12:52.369Z,36.73
2022-08-03T05:13:52.382Z,37.02
2022-08-03T05:14:52.371Z,37.14
2022-08-03T05:15:52.375Z,37.14
2022-08-03T05:16:52.372Z,37.04
2022-08-03T05:17:52.371Z,37.12
2022-08-03T05:18:52.374Z,36.93
2022-08-03T05:19:52.377Z,37.02
2022-08-03T05:20:52.379Z,37.02
2022-08-03T05:21:53.075Z,37.51
2022-08-03T05:22:52.378Z,37.41
2022-08-03T05:23:52.381Z,37.22
2022-08-03T05:24:52.379Z,37.34
2022-08-03T05:25:52.378Z,37.32
2022-08-03T05:26:52.381Z,37.32
2022-08-03T05:27:52.381Z,37.32
2022-08-03T05:28:52.382Z,37.32
2022-08-03T05:29:52.381Z,37.22
2022-08-03T05:30:52.384Z,37.22
2022-08-03T05:31:52.387Z,37.32
2022-08-03T05:32:52.386Z,37.32
2022-08-03T05:33:52.385Z,37.02
2022-08-03T05:34:52.389Z,37.32
2022-08-03T05:36:00.925Z,37.22
2022-08-03T05:36:52.388Z,37.12
2022-08-03T05:37:54.636Z,37.12
2022-08-03T05:38:52.391Z,37.32
2022-08-03T05:39:52.390Z,37.22
2022-08-03T05:40:56.955Z,37.12
2022-08-03T05:41:52.391Z,37.12
2022-08-03T05:42:52.401Z,37.12
2022-08-03T05:43:52.399Z,37.24
2022-08-03T05:44:52.395Z,37.12
2022-08-03T05:46:12.363Z,36.93
2022-08-03T05:46:52.397Z,37.32
2022-08-03T05:47:52.397Z,37.41
2022-08-03T05:48:52.561Z,37.32
2022-08-03T05:49:52.399Z,37.22
2022-08-03T05:50:52.400Z,37.52
2022-08-03T05:52:08.224Z,37.41
2022-08-03T05:52:52.402Z,37.51
2022-08-03T05:53:52.402Z,37.51
2022-08-03T05:54:56.306Z,37.32
2022-08-03T05:55:56.145Z,37.51
2022-08-03T05:56:52.404Z,37.12
2022-08-03T05:57:52.405Z,37.60
2022-08-03T05:58:52.406Z,37.41
2022-08-03T05:59:54.800Z,37.41
2022-08-03T06:00:52.407Z,37.80
2022-08-03T06:01:52.434Z,37.34
2022-08-03T06:02:52.411Z,37.70
2022-08-03T06:03:52.414Z,37.70
2022-08-03T06:04:52.412Z,38.39
2022-08-03T06:05:55.545Z,38.77
2022-08-03T06:06:52.414Z,37.99
2022-08-03T06:07:52.415Z,37.70
2022-08-03T06:08:52.414Z,37.41
2022-08-03T06:10:34.196Z,39.06
2022-08-03T06:10:52.420Z,38.48
2022-08-03T06:11:52.416Z,38.11
2022-08-03T06:12:52.424Z,37.72
2022-08-03T06:13:52.418Z,37.82
2022-08-03T06:14:52.420Z,38.11
2022-08-03T06:15:52.421Z,38.19
2022-08-03T06:16:52.420Z,37.99
2022-08-03T06:17:52.421Z,38.29
2022-08-03T06:18:52.426Z,41.32
2022-08-03T06:19:52.431Z,39.16
2022-08-03T06:20:52.570Z,38.21
2022-08-03T06:21:52.425Z,38.29
2022-08-03T06:23:00.233Z,38.11
2022-08-03T06:23:54.850Z,38.21
2022-08-03T06:24:53.678Z,38.09
2022-08-03T06:25:52.429Z,38.01
2022-08-03T06:26:52.431Z,37.72
2022-08-03T06:27:52.433Z,37.72
2022-08-03T06:28:54.286Z,38.21
2022-08-03T06:29:52.432Z,37.82
2022-08-03T06:30:52.439Z,37.92
2022-08-03T06:31:52.434Z,37.92
2022-08-03T06:32:52.648Z,38.50
2022-08-03T06:34:33.405Z,38.01
2022-08-03T06:34:52.438Z,37.72
2022-08-03T06:35:52.443Z,37.72
2022-08-03T06:36:52.978Z,37.92
2022-08-03T06:37:52.440Z,37.92
2022-08-03T06:38:52.442Z,37.92
2022-08-03T06:39:52.442Z,37.62
2022-08-03T06:40:52.443Z,37.52
2022-08-03T06:41:52.443Z,37.82
2022-08-03T06:42:52.446Z,37.52
2022-08-03T06:44:03.147Z,37.52
2022-08-03T06:44:52.449Z,37.62
2022-08-03T06:45:52.449Z,38.11
2022-08-03T06:46:52.449Z,37.52
2022-08-03T06:47:52.451Z,38.11
2022-08-03T06:48:52.538Z,37.62
2022-08-03T06:50:16.297Z,37.45
2022-08-03T06:50:52.452Z,37.92
2022-08-03T06:52:03.823Z,37.62
2022-08-03T06:52:52.456Z,37.52
2022-08-03T06:53:52.457Z,37.43
2022-08-03T06:54:52.457Z,37.43
2022-08-03T06:55:54.714Z,37.62
2022-08-03T06:56:52.607Z,37.34
2022-08-03T06:57:52.460Z,37.74
2022-08-03T06:58:52.461Z,37.34
2022-08-03T07:00:08.706Z,37.62
2022-08-03T07:00:52.463Z,37.62
2022-08-03T07:01:52.524Z,37.62
2022-08-03T07:02:57.682Z,37.62
2022-08-03T07:03:52.727Z,37.72
2022-08-03T07:04:52.468Z,37.52
2022-08-03T07:05:52.470Z,37.43
2022-08-03T07:06:52.468Z,37.64
2022-08-03T07:07:52.472Z,37.34
2022-08-03T07:08:56.496Z,37.92
2022-08-03T07:09:56.951Z,38.21
2022-08-03T07:10:52.473Z,37.92
2022-08-03T07:11:52.476Z,37.84
2022-08-03T07:12:52.607Z,37.74
2022-08-03T07:13:52.478Z,38.03
2022-08-03T07:14:55.597Z,37.82
2022-08-03T07:15:55.471Z,37.82
2022-08-03T07:16:52.481Z,37.72
2022-08-03T07:17:52.483Z,37.74
2022-08-03T07:18:52.482Z,37.74
2022-08-03T07:19:52.485Z,37.93
2022-08-03T07:20:52.484Z,37.84
2022-08-03T07:21:53.580Z,37.82
2022-08-03T07:22:52.487Z,37.84
2022-08-03T07:23:52.488Z,37.84
2022-08-03T07:24:52.488Z,38.52
2022-08-03T07:25:52.490Z,38.13
2022-08-03T07:26:52.491Z,37.84
2022-08-03T07:27:52.494Z,37.84
2022-08-03T07:28:52.492Z,37.84
2022-08-03T07:29:52.496Z,38.23
2022-08-03T07:30:52.495Z,37.72
2022-08-03T07:31:52.498Z,37.84
2022-08-03T07:32:52.496Z,37.93
2022-08-03T07:33:52.499Z,37.64
2022-08-03T07:34:56.943Z,37.93
2022-08-03T07:35:52.502Z,38.03
2022-08-03T07:36:52.502Z,37.93
2022-08-03T07:37:54.079Z,37.84
2022-08-03T07:38:52.502Z,37.82
2022-08-03T07:39:52.507Z,37.93
2022-08-03T07:40:52.505Z,37.93
2022-08-03T07:41:52.507Z,37.84
2022-08-03T07:42:53.520Z,38.42
2022-08-03T07:43:52.511Z,38.42
2022-08-03T07:44:52.510Z,39.39
2022-08-03T07:45:52.515Z,41.53
2022-08-03T07:46:52.512Z,38.81
2022-08-03T07:47:53.510Z,38.23
2022-08-03T07:48:52.581Z,38.23
2022-08-03T07:49:52.516Z,38.03
2022-08-03T07:50:52.520Z,38.13
2022-08-03T07:51:52.520Z,38.11
2022-08-03T07:52:52.518Z,38.23
2022-08-03T07:53:53.034Z,38.13
2022-08-03T07:54:52.524Z,38.23
2022-08-03T07:55:52.522Z,38.23
2022-08-03T07:56:52.522Z,37.84
2022-08-03T07:57:52.525Z,37.93
2022-08-03T07:58:52.525Z,37.84
2022-08-03T07:59:56.582Z,38.13
2022-08-03T08:00:52.580Z,38.23
2022-08-03T08:01:52.529Z,37.92
2022-08-03T08:02:52.531Z,37.84
2022-08-03T08:03:53.726Z,38.32
2022-08-03T08:04:53.549Z,38.23
2022-08-03T08:05:52.532Z,38.23
2022-08-03T08:06:52.534Z,38.23
2022-08-03T08:07:52.538Z,38.23
2022-08-03T08:08:52.540Z,38.42
2022-08-03T08:09:52.538Z,37.93
2022-08-03T08:10:58.460Z,37.93
2022-08-03T08:11:52.541Z,38.23
2022-08-03T08:12:52.540Z,38.52
2022-08-03T08:13:52.544Z,38.23
2022-08-03T08:14:52.544Z,38.13
2022-08-03T08:15:52.546Z,38.23
2022-08-03T08:16:52.545Z,38.23
2022-08-03T08:17:52.547Z,38.62
2022-08-03T08:18:52.547Z,38.62
2022-08-03T08:19:53.335Z,38.42
2022-08-03T08:20:52.551Z,38.42
2022-08-03T08:21:53.622Z,38.21
2022-08-03T08:22:52.551Z,38.31
2022-08-03T08:23:56.895Z,38.23
2022-08-03T08:24:52.551Z,38.32
2022-08-03T08:25:52.556Z,38.23
2022-08-03T08:26:52.558Z,38.50
2022-08-03T08:28:29.098Z,38.32
2022-08-03T08:28:52.559Z,38.50
2022-08-03T08:29:54.325Z,38.60
2022-08-03T08:30:52.563Z,38.31
2022-08-03T08:31:52.563Z,38.60
2022-08-03T08:32:52.560Z,38.50
2022-08-03T08:34:07.964Z,38.52
2022-08-03T08:34:52.563Z,38.62
2022-08-03T08:35:52.567Z,38.62
2022-08-03T08:36:52.565Z,38.50
2022-08-03T08:37:52.571Z,38.40
2022-08-03T08:38:52.568Z,38.50
2022-08-03T08:39:52.571Z,38.60
2022-08-03T08:40:52.569Z,38.60
2022-08-03T08:41:53.387Z,38.50
2022-08-03T08:42:58.543Z,38.50
2022-08-03T08:43:55.515Z,39.00
2022-08-03T08:44:52.573Z,38.79
2022-08-03T08:45:52.578Z,38.60
2022-08-03T08:46:52.576Z,38.79
2022-08-03T08:47:55.696Z,38.70
2022-08-03T08:48:52.830Z,38.60
2022-08-03T08:50:08.811Z,38.60
2022-08-03T08:50:52.581Z,38.60
2022-08-03T08:52:01.007Z,38.60
2022-08-03T08:52:52.583Z,38.70
2022-08-03T08:53:52.584Z,38.70
2022-08-03T08:54:52.586Z,38.70
2022-08-03T08:55:59.365Z,38.79
2022-08-03T08:56:52.587Z,38.60
2022-08-03T08:57:52.589Z,38.79
2022-08-03T08:58:52.589Z,38.70
2022-08-03T08:59:57.003Z,38.71
2022-08-03T09:00:52.665Z,38.79
2022-08-03T09:01:52.593Z,38.70
2022-08-03T09:02:52.593Z,38.70
2022-08-03T09:03:52.595Z,38.70
2022-08-03T09:04:52.596Z,38.70
2022-08-03T09:05:56.438Z,38.79
2022-08-03T09:07:17.704Z,38.70
2022-08-03T09:07:52.600Z,38.71
2022-08-03T09:08:52.599Z,38.70
2022-08-03T09:10:08.416Z,38.89
2022-08-03T09:10:52.601Z,38.79
2022-08-03T09:12:01.251Z,38.60
2022-08-03T09:12:52.603Z,38.60
2022-08-03T09:13:52.607Z,38.79
2022-08-03T09:15:14.690Z,38.70
2022-08-03T09:15:57.171Z,38.79
2022-08-03T09:16:52.608Z,38.79
2022-08-03T09:17:52.611Z,39.18
2022-08-03T09:18:52.612Z,38.79
2022-08-03T09:20:03.496Z,38.70
2022-08-03T09:20:52.612Z,38.62
2022-08-03T09:21:52.614Z,38.81
2022-08-03T09:22:52.613Z,38.81
2022-08-03T09:24:02.803Z,38.71
2022-08-03T09:25:14.769Z,38.81
2022-08-03T09:25:52.617Z,38.42
2022-08-03T09:26:53.835Z,38.71
2022-08-03T09:27:53.457Z,38.52
2022-08-03T09:29:01.328Z,38.50
2022-08-03T09:29:52.623Z,38.42
2022-08-03T09:30:52.622Z,38.52
2022-08-03T09:31:52.624Z,38.71
2022-08-03T09:32:52.625Z,38.52
2022-08-03T09:33:52.627Z,38.52
2022-08-03T09:34:56.550Z,38.62
2022-08-03T09:35:54.032Z,38.11
2022-08-03T09:36:52.630Z,38.42
2022-08-03T09:38:12.244Z,38.32
2022-08-03T09:38:52.631Z,38.23
2022-08-03T09:39:52.634Z,38.42
2022-08-03T09:40:56.009Z,38.32
2022-08-03T09:41:52.635Z,38.23
2022-08-03T09:42:52.636Z,38.23
2022-08-03T09:43:52.638Z,38.32
2022-08-03T09:44:52.637Z,38.32
2022-08-03T09:45:52.640Z,38.23
2022-08-03T09:46:52.639Z,38.23
2022-08-03T09:47:52.642Z,38.52
2022-08-03T09:48:52.695Z,38.52
2022-08-03T09:49:52.645Z,38.71
2022-08-03T09:50:57.020Z,38.52
2022-08-03T09:52:33.544Z,38.32
2022-08-03T09:52:53.052Z,38.32
2022-08-03T09:53:58.792Z,37.93
2022-08-03T09:54:52.651Z,37.93
2022-08-03T09:56:33.599Z,38.32
2022-08-03T09:56:52.651Z,38.32
2022-08-03T09:57:52.655Z,37.93
2022-08-03T09:58:52.653Z,37.84
2022-08-03T09:59:58.775Z,38.03
2022-08-03T10:00:52.733Z,37.93
2022-08-03T10:01:52.658Z,37.84
2022-08-03T10:02:52.659Z,37.93
2022-08-03T10:04:04.354Z,38.03
2022-08-03T10:04:52.662Z,38.13
2022-08-03T10:05:57.430Z,38.03
2022-08-03T10:06:52.663Z,38.03
2022-08-03T10:07:52.667Z,37.93
2022-08-03T10:08:52.665Z,37.84
2022-08-03T10:09:52.668Z,38.13
2022-08-03T10:10:52.667Z,38.03
2022-08-03T10:11:52.669Z,37.84
2022-08-03T10:12:52.672Z,38.23
2022-08-03T10:13:52.673Z,41.83
2022-08-03T10:14:52.679Z,41.73
2022-08-03T10:16:24.149Z,38.71
2022-08-03T10:16:52.677Z,38.52
2022-08-03T10:17:52.677Z,38.23
2022-08-03T10:18:52.681Z,38.23
2022-08-03T10:19:52.680Z,38.03
2022-08-03T10:20:52.699Z,37.93
2022-08-03T10:21:52.695Z,37.93
2022-08-03T10:22:52.682Z,38.52
2022-08-03T10:23:52.685Z,37.93
2022-08-03T10:24:52.686Z,37.93
2022-08-03T10:25:52.686Z,37.93
2022-08-03T10:26:52.686Z,37.84
2022-08-03T10:27:52.691Z,37.84
2022-08-03T10:28:52.691Z,37.84
2022-08-03T10:29:52.691Z,37.93
2022-08-03T10:30:52.694Z,38.34
2022-08-03T10:31:57.414Z,37.54
2022-08-03T10:32:52.711Z,37.64
2022-08-03T10:33:53.355Z,37.74
2022-08-03T10:35:00.180Z,37.54
2022-08-03T10:35:52.701Z,37.54
2022-08-03T10:36:52.699Z,37.66
2022-08-03T10:37:56.941Z,37.85
2022-08-03T10:38:53.115Z,37.76
2022-08-03T10:39:52.703Z,37.74
2022-08-03T10:40:55.897Z,37.66
2022-08-03T10:41:52.730Z,37.95
2022-08-03T10:42:52.706Z,37.66
2022-08-03T10:43:52.707Z,37.76
2022-08-03T10:44:52.710Z,37.76
2022-08-03T10:45:52.710Z,37.27
2022-08-03T10:46:52.719Z,37.46
2022-08-03T10:47:52.713Z,37.27
2022-08-03T10:48:52.856Z,37.37
2022-08-03T10:49:52.732Z,37.56
2022-08-03T10:50:52.720Z,37.56
2022-08-03T10:51:54.329Z,37.18
2022-08-03T10:52:52.719Z,37.27
2022-08-03T10:53:54.755Z,37.56
2022-08-03T10:54:52.720Z,37.56
2022-08-03T10:55:52.724Z,37.08
2022-08-03T10:56:52.736Z,37.08
2022-08-03T10:57:58.784Z,37.27
2022-08-03T10:58:57.202Z,37.37
2022-08-03T10:59:52.730Z,37.27
2022-08-03T11:00:52.755Z,37.27
2022-08-03T11:01:59.236Z,37.37
2022-08-03T11:02:52.738Z,37.18
2022-08-03T11:03:52.733Z,37.08
2022-08-03T11:04:52.734Z,37.08
2022-08-03T11:05:52.736Z,36.88
2022-08-03T11:06:52.739Z,36.98
2022-08-03T11:07:54.579Z,36.88
2022-08-03T11:08:52.741Z,36.69
2022-08-03T11:09:52.744Z,36.79
2022-08-03T11:10:52.743Z,36.79
2022-08-03T11:11:52.745Z,36.79
2022-08-03T11:12:52.746Z,36.79
2022-08-03T11:13:52.750Z,36.79
2022-08-03T11:14:52.748Z,36.98
2022-08-03T11:15:52.754Z,37.08
2022-08-03T11:16:52.851Z,36.98
2022-08-03T11:17:55.857Z,36.59
2022-08-03T11:18:52.754Z,36.69
2022-08-03T11:19:56.767Z,36.69
2022-08-03T11:20:52.755Z,36.49
2022-08-03T11:21:52.756Z,36.59
2022-08-03T11:22:52.760Z,36.40
2022-08-03T11:24:05.558Z,36.98
2022-08-03T11:24:52.765Z,36.98
2022-08-03T11:25:54.840Z,36.88
2022-08-03T11:26:52.763Z,36.88
2022-08-03T11:27:52.765Z,36.88
2022-08-03T11:28:52.767Z,36.88
2022-08-03T11:29:52.768Z,36.88
2022-08-03T11:30:52.769Z,36.88
2022-08-03T11:31:52.769Z,36.88
2022-08-03T11:32:52.774Z,36.88
2022-08-03T11:33:52.772Z,36.88
2022-08-03T11:34:52.775Z,36.59
2022-08-03T11:35:52.775Z,36.98
2022-08-03T11:36:52.778Z,36.59
2022-08-03T11:38:03.094Z,36.40
2022-08-03T11:38:52.780Z,36.40
2022-08-03T11:39:52.785Z,36.40
2022-08-03T11:40:52.782Z,36.59
2022-08-03T11:41:52.782Z,36.30
2022-08-03T11:42:52.786Z,36.30
2022-08-03T11:43:52.785Z,36.49
2022-08-03T11:44:52.792Z,36.59
2022-08-03T11:45:52.789Z,36.59
2022-08-03T11:46:52.789Z,36.40
2022-08-03T11:47:52.791Z,36.40
2022-08-03T11:48:52.824Z,36.69
2022-08-03T11:49:52.795Z,36.79
2022-08-03T11:50:52.796Z,36.30
2022-08-03T11:51:52.797Z,36.18
2022-08-03T11:52:52.797Z,36.30
2022-08-03T11:53:52.799Z,36.59
2022-08-03T11:54:56.651Z,36.10
2022-08-03T11:55:52.801Z,36.20
2022-08-03T11:56:52.802Z,36.08
2022-08-03T11:59:00.850Z,36.00
2022-08-03T11:59:01.342Z,36.59
2022-08-03T11:59:52.807Z,36.28
2022-08-03T12:00:52.812Z,35.80
2022-08-03T12:01:52.809Z,35.81
2022-08-03T12:02:52.870Z,35.89
2022-08-03T12:03:52.811Z,35.91
2022-08-03T12:04:52.812Z,35.91
2022-08-03T12:05:52.901Z,35.91
2022-08-03T12:06:52.817Z,35.89
2022-08-03T12:08:03.735Z,35.91
2022-08-03T12:08:52.818Z,35.81
2022-08-03T12:09:52.818Z,35.91
2022-08-03T12:10:52.823Z,35.80
2022-08-03T12:11:59.873Z,36.10
2022-08-03T12:12:52.823Z,35.61
2022-08-03T12:14:44.982Z,35.70
2022-08-03T12:14:52.825Z,35.61
2022-08-03T12:15:52.827Z,35.70
2022-08-03T12:16:52.829Z,35.41
2022-08-03T12:17:57.626Z,35.91
2022-08-03T12:18:52.831Z,35.50
2022-08-03T12:19:52.831Z,35.60
2022-08-03T12:20:52.832Z,35.50
2022-08-03T12:21:56.662Z,35.31
2022-08-03T12:22:52.836Z,35.60
2022-08-03T12:23:52.835Z,35.33
2022-08-03T12:24:52.837Z,35.31
2022-08-03T12:25:52.837Z,35.31
2022-08-03T12:26:59.416Z,35.41
2022-08-03T12:27:52.849Z,35.31
2022-08-03T12:28:52.842Z,35.41
2022-08-03T12:29:58.837Z,35.21
2022-08-03T12:30:52.846Z,34.92
2022-08-03T12:31:52.847Z,35.21
2022-08-03T12:32:52.849Z,34.82
2022-08-03T12:33:52.849Z,34.92
2022-08-03T12:34:52.854Z,35.70
2022-08-03T12:35:52.851Z,35.70
2022-08-03T12:36:52.853Z,35.52
2022-08-03T12:37:52.852Z,35.31
2022-08-03T12:38:52.856Z,35.02
2022-08-03T12:40:00.455Z,34.92
2022-08-03T12:40:52.857Z,35.31
2022-08-03T12:41:52.860Z,35.13
2022-08-03T12:42:52.862Z,35.02
2022-08-03T12:43:52.862Z,35.21
2022-08-03T12:44:56.430Z,34.94
2022-08-03T12:45:52.861Z,35.11
2022-08-03T12:46:52.865Z,35.02
2022-08-03T12:47:52.867Z,35.03
2022-08-03T12:48:52.889Z,34.92
2022-08-03T12:49:52.870Z,35.02
2022-08-03T12:50:53.618Z,35.02
2022-08-03T12:51:52.870Z,34.84
2022-08-03T12:52:52.873Z,35.02